Details for TUI Airlines UK (Thomson) at EGPD




Go Back


Latest METAR
Local Time

EGPD 232350Z AUTO 16018KT 9999 OVC027 04/M01 Q1023 NOSIG

23/02/2018, 23:54:24

Description
Results
TUI Airlines UK (Thomson) Logo
Number of Pilots based at EGPD
0 Pilots Based here
Number of TUI Airlines UK (Thomson) Flights Departed from EGPD
1 Flights Departed
Number of TUI Airlines UK (Thomson) Flights Arrived at EGPD
0 Flights Arrived
Number of TUI Airlines UK (Thomson) Schedules Departing from EGPD
2 Schedules
Number of TUI Airlines UK (Thomson) Schedules Arriving at EGPD
3 Schedules
Number of TUI Airlines UK (Thomson) Schedules Departing from EGPD availible today
0 Schedules Today
Number of TUI Airlines UK (Thomson) Schedules Arriving at EGPD availible today
0 Schedules Today
Average Landing Rate at EGPD
-255 fpm
TUI Airlines UK (Thomson) Average Landing Rate at EGPD
0 fpm
Total Fuel Purchased at EGPD by TUI Airlines UK (Thomson)
12,716.90 kgs / 28,035.68 lbs

Pilots Based at EGPD


Pilot ID
Pilot Name
Pilot Rank
No. of Flights
No. of Flying Hours
There are no pilots assigned to this hub!   Will you be the first?
Content